Time;durP1;ratioP1;P1;durP2;ratioP2;P2;SDS_P1;SDS_P2;PMS_P1;PMS_P2;Temp;Humidity;BMP_temperature;BMP_pressure;BME280_temperature;BME280_humidity;BME280_pressure;Samples;Min_cycle;Max_cycle;Signal;HPM_P1;HPM_P2
2021/08/21 00:02:47;;;;;;;1.60;1.10;;;24.30;56.10;;;;;;6333459;28;20110;-69
2021/08/21 00:05:48;;;;;;;1.30;1.00;;;24.30;56.10;;;;;;6317478;28;20016;-69
2021/08/21 00:08:48;;;;;;;1.23;1.00;;;24.30;56.00;;;;;;6330868;28;20235;-69
2021/08/21 00:11:49;;;;;;;1.27;1.17;;;24.30;56.10;;;;;;6341221;28;20477;-69
2021/08/21 00:14:49;;;;;;;1.55;1.20;;;24.30;56.10;;;;;;6320834;28;20438;-69
2021/08/21 00:17:51;;;;;;;1.20;1.05;;;24.30;56.00;;;;;;6316962;28;20355;-69
2021/08/21 00:20:51;;;;;;;1.00;0.82;;;24.30;56.10;;;;;;6317058;28;20407;-69
2021/08/21 00:23:52;;;;;;;1.35;1.15;;;24.30;56.10;;;;;;6329251;28;20024;-69
2021/08/21 00:26:53;;;;;;;1.13;1.00;;;24.30;56.10;;;;;;6341944;28;20035;-69
2021/08/21 00:29:54;;;;;;;1.10;1.00;;;24.30;56.10;;;;;;6342168;28;20069;-69
2021/08/21 00:32:54;;;;;;;0.80;0.80;;;24.30;56.10;;;;;;6322335;28;20397;-69
2021/08/21 00:35:55;;;;;;;1.35;1.13;;;24.30;56.10;;;;;;6315355;28;20024;-69
2021/08/21 00:38:56;;;;;;;1.10;1.00;;;24.30;56.00;;;;;;6316587;28;20058;-69
2021/08/21 00:41:56;;;;;;;1.27;0.90;;;24.30;56.00;;;;;;6314807;28;20123;-69
2021/08/21 00:44:57;;;;;;;1.20;1.08;;;24.30;56.00;;;;;;6321040;28;20027;-69
2021/08/21 00:47:59;;;;;;;1.15;1.02;;;24.30;56.00;;;;;;6340689;28;20027;-69
2021/08/21 00:51:01;;;;;;;1.08;0.98;;;24.30;56.00;;;;;;6341602;28;20515;-69
2021/08/21 00:54:02;;;;;;;1.20;0.90;;;24.30;56.00;;;;;;6341090;28;20020;-69
2021/08/21 00:57:03;;;;;;;1.08;0.95;;;24.30;56.00;;;;;;6341581;28;20048;-70
2021/08/21 01:00:05;;;;;;;1.20;1.08;;;24.30;56.00;;;;;;6341189;28;20408;-69
2021/08/21 01:03:05;;;;;;;1.48;0.90;;;24.30;56.00;;;;;;6323042;28;20523;-69
2021/08/21 01:06:06;;;;;;;1.10;0.90;;;24.30;56.00;;;;;;6315979;28;20024;-69
2021/08/21 01:09:06;;;;;;;1.40;1.10;;;24.30;56.00;;;;;;6320066;28;20023;-69
2021/08/21 01:12:12;;;;;;;0.93;0.82;;;24.30;56.00;;;;;;6341317;28;20084;-69
2021/08/21 01:15:13;;;;;;;1.17;1.00;;;24.30;56.00;;;;;;6309378;28;20117;-69
2021/08/21 01:18:15;;;;;;;0.80;0.80;;;24.30;56.00;;;;;;6289709;28;20029;-69
2021/08/21 01:21:16;;;;;;;1.27;1.05;;;24.30;56.10;;;;;;6312827;28;20024;-69
2021/08/21 01:24:17;;;;;;;1.10;1.00;;;24.30;56.10;;;;;;6320099;28;20027;-69
2021/08/21 01:27:31;;;;;;;1.70;1.17;;;24.30;56.10;;;;;;6341141;28;20394;-69
2021/08/21 01:30:31;;;;;;;0.98;0.88;;;24.30;56.10;;;;;;6341439;28;20031;-69
2021/08/21 01:33:36;;;;;;;1.05;0.95;;;24.30;56.10;;;;;;6341195;28;20032;-69
2021/08/21 01:36:48;;;;;;;0.98;0.90;;;24.30;56.10;;;;;;6340954;28;20024;-69
2021/08/21 01:39:51;;;;;;;1.55;0.90;;;24.30;56.10;;;;;;6334410;28;20032;-69
2021/08/21 01:42:51;;;;;;;1.17;1.00;;;24.30;56.10;;;;;;6315824;28;20024;-69
2021/08/21 01:45:52;;;;;;;1.10;1.00;;;24.30;56.10;;;;;;6330200;28;20053;-69
2021/08/21 01:48:53;;;;;;;0.95;0.90;;;24.30;56.10;;;;;;6341180;28;20473;-68
2021/08/21 01:52:03;;;;;;;1.13;0.88;;;24.30;56.10;;;;;;6317648;28;20032;-69
2021/08/21 01:55:05;;;;;;;1.00;0.90;;;24.30;56.10;;;;;;6322183;28;20020;-69
2021/08/21 01:58:06;;;;;;;1.02;0.93;;;24.30;56.20;;;;;;6340314;28;20044;-69
2021/08/21 02:01:06;;;;;;;1.00;0.90;;;24.30;56.20;;;;;;6325142;28;20522;-69
2021/08/21 02:04:07;;;;;;;1.40;0.90;;;24.30;56.20;;;;;;6315099;28;20184;-69
2021/08/21 02:07:08;;;;;;;1.65;1.00;;;24.30;56.20;;;;;;6313983;28;20055;-69
2021/08/21 02:10:09;;;;;;;0.90;0.80;;;24.30;56.20;;;;;;6319799;28;20396;-68
2021/08/21 02:13:10;;;;;;;0.70;0.70;;;24.30;56.20;;;;;;6340083;28;20035;-68
2021/08/21 02:16:10;;;;;;;1.40;1.20;;;24.30;56.20;;;;;;6328892;28;20051;-68
2021/08/21 02:19:11;;;;;;;0.80;0.70;;;24.30;56.20;;;;;;6345637;28;20387;-68
2021/08/21 02:22:12;;;;;;;2.97;1.05;;;24.30;56.20;;;;;;6324531;28;20424;-68
2021/08/21 02:25:14;;;;;;;0.90;0.80;;;24.30;56.20;;;;;;6329891;28;20149;-68
2021/08/21 02:28:18;;;;;;;1.10;0.90;;;24.30;56.20;;;;;;6345033;28;20065;-68
2021/08/21 02:31:20;;;;;;;4.00;0.90;;;24.30;56.20;;;;;;6333266;28;20077;-68
2021/08/21 02:34:25;;;;;;;1.15;1.00;;;24.30;56.20;;;;;;6320172;28;20029;-69
2021/08/21 02:37:26;;;;;;;1.33;0.82;;;24.30;56.20;;;;;;6339823;28;20020;-68
2021/08/21 02:40:27;;;;;;;0.85;0.75;;;24.30;56.20;;;;;;6342611;28;20019;-68
2021/08/21 02:43:27;;;;;;;0.73;0.70;;;24.30;56.20;;;;;;6319813;28;20115;-68
2021/08/21 02:46:28;;;;;;;1.10;0.80;;;24.30;56.20;;;;;;6329936;28;20111;-68
2021/08/21 02:49:28;;;;;;;0.80;0.70;;;24.20;56.10;;;;;;6344401;28;20030;-68
2021/08/21 02:52:29;;;;;;;0.70;0.70;;;24.30;56.20;;;;;;6344813;28;20032;-68
2021/08/21 02:55:30;;;;;;;1.05;0.70;;;24.30;56.20;;;;;;6343870;28;20030;-68
2021/08/21 02:58:30;;;;;;;1.02;0.88;;;24.30;56.20;;;;;;6342973;28;20026;-68
2021/08/21 03:01:31;;;;;;;0.75;0.73;;;24.30;56.20;;;;;;6344468;28;20396;-68
2021/08/21 03:04:31;;;;;;;1.10;0.90;;;24.30;56.20;;;;;;6333908;28;20028;-68
2021/08/21 03:07:32;;;;;;;0.80;0.80;;;24.30;56.50;;;;;;6343962;28;20646;-68
2021/08/21 03:10:32;;;;;;;0.93;0.73;;;24.30;56.20;;;;;;6343841;28;20254;-68
2021/08/21 03:13:33;;;;;;;1.15;0.70;;;24.20;56.10;;;;;;6339807;28;20030;-68
2021/08/21 03:16:33;;;;;;;0.80;0.77;;;24.20;56.10;;;;;;6317002;28;20030;-68
2021/08/21 03:19:34;;;;;;;0.85;0.80;;;24.30;56.20;;;;;;6293383;28;20033;-69
2021/08/21 03:22:35;;;;;;;1.27;1.00;;;24.30;56.20;;;;;;6303142;28;20017;-68
2021/08/21 03:25:35;;;;;;;0.60;0.60;;;24.30;56.20;;;;;;6328340;28;20031;-68
2021/08/21 03:28:36;;;;;;;1.00;0.90;;;24.30;56.20;;;;;;6339266;28;20020;-68
2021/08/21 03:31:37;;;;;;;0.80;0.70;;;24.20;56.10;;;;;;6317953;28;20487;-68
2021/08/21 03:34:38;;;;;;;0.88;0.75;;;24.20;56.10;;;;;;6293839;28;20255;-68
2021/08/21 03:37:38;;;;;;;0.80;0.80;;;24.20;56.00;;;;;;6306843;28;20253;-68
2021/08/21 03:40:39;;;;;;;0.70;0.63;;;24.30;56.10;;;;;;6329112;28;20020;-68
2021/08/21 03:43:39;;;;;;;2.60;0.90;;;24.30;56.10;;;;;;6318188;28;20074;-69
2021/08/21 03:46:40;;;;;;;0.95;0.85;;;24.30;56.10;;;;;;6316630;28;20107;-68
2021/08/21 03:49:41;;;;;;;0.88;0.88;;;24.30;56.10;;;;;;6339799;28;20031;-68
2021/08/21 03:52:42;;;;;;;0.90;0.80;;;24.30;56.10;;;;;;6342671;28;20031;-68
2021/08/21 03:55:43;;;;;;;1.00;0.82;;;24.30;56.10;;;;;;6343245;28;20512;-68
2021/08/21 03:58:43;;;;;;;0.75;0.70;;;24.30;56.10;;;;;;6342758;28;20023;-68
2021/08/21 04:01:44;;;;;;;0.80;0.80;;;24.30;56.00;;;;;;6342436;28;20035;-68
2021/08/21 04:04:45;;;;;;;0.70;0.60;;;24.30;56.10;;;;;;6322208;28;20048;-68
2021/08/21 04:07:45;;;;;;;0.95;0.80;;;24.30;56.10;;;;;;6317699;28;20024;-68
2021/08/21 04:10:46;;;;;;;1.42;1.00;;;24.30;56.20;;;;;;6317345;28;20032;-68
2021/08/21 04:13:46;;;;;;;0.80;0.80;;;24.30;56.20;;;;;;6322872;28;20082;-68
2021/08/21 04:16:47;;;;;;;1.30;1.15;;;24.30;56.20;;;;;;6316228;28;20030;-69
2021/08/21 04:19:48;;;;;;;0.85;0.75;;;24.30;56.10;;;;;;6336704;28;20030;-68
2021/08/21 04:22:48;;;;;;;1.13;0.90;;;24.30;56.20;;;;;;6342292;28;20031;-68
2021/08/21 04:25:49;;;;;;;0.90;0.80;;;24.30;56.20;;;;;;6342309;28;20108;-68
2021/08/21 04:28:49;;;;;;;0.70;0.70;;;24.30;56.20;;;;;;6342284;28;20024;-67
2021/08/21 04:31:50;;;;;;;0.80;0.70;;;24.30;56.20;;;;;;6341897;28;20562;-68
2021/08/21 04:34:51;;;;;;;2.15;0.88;;;24.30;56.20;;;;;;6323329;28;20430;-68
2021/08/21 04:37:52;;;;;;;1.00;0.88;;;24.30;56.20;;;;;;6316581;28;20016;-68
2021/08/21 04:40:53;;;;;;;0.90;0.80;;;24.30;56.30;;;;;;6315771;28;20028;-68
2021/08/21 04:43:54;;;;;;;1.38;0.90;;;24.30;56.20;;;;;;6323380;28;20012;-68
2021/08/21 04:46:55;;;;;;;0.70;0.70;;;24.30;56.20;;;;;;6341863;28;20045;-68
2021/08/21 04:49:56;;;;;;;1.40;1.05;;;24.30;56.30;;;;;;6325767;28;20016;-68
2021/08/21 04:52:56;;;;;;;1.15;0.77;;;24.30;56.20;;;;;;6317135;28;20020;-68
2021/08/21 04:55:57;;;;;;;0.77;0.75;;;24.30;56.20;;;;;;6316450;28;20381;-68
2021/08/21 04:58:59;;;;;;;1.08;0.70;;;24.30;56.10;;;;;;6314940;28;20131;-68
2021/08/21 05:02:01;;;;;;;1.25;0.70;;;24.30;56.30;;;;;;6306264;28;20131;-68
2021/08/21 05:05:01;;;;;;;0.93;0.65;;;24.30;56.20;;;;;;6319383;28;20020;-68
2021/08/21 05:08:03;;;;;;;1.00;0.80;;;24.30;56.20;;;;;;6341576;28;20030;-68
2021/08/21 05:11:04;;;;;;;0.90;0.80;;;24.30;56.30;;;;;;6340746;28;20020;-68
2021/08/21 05:14:04;;;;;;;1.08;0.98;;;24.30;56.30;;;;;;6334283;28;20499;-68
2021/08/21 05:17:05;;;;;;;1.40;0.90;;;24.30;56.20;;;;;;6340928;28;20039;-68
2021/08/21 05:20:14;;;;;;;0.93;0.82;;;24.30;56.30;;;;;;6330332;28;20016;-68
2021/08/21 05:23:14;;;;;;;1.10;1.00;;;24.30;56.30;;;;;;6315977;28;20024;-68
2021/08/21 05:26:15;;;;;;;0.80;0.70;;;24.30;56.10;;;;;;6336183;28;20030;-68
2021/08/21 05:29:17;;;;;;;0.85;0.70;;;24.30;56.20;;;;;;6337180;28;20019;-68
2021/08/21 05:32:18;;;;;;;0.65;0.63;;;24.30;56.30;;;;;;6315956;28;20101;-68
2021/08/21 05:35:18;;;;;;;0.80;0.75;;;24.30;56.30;;;;;;6326752;28;20373;-68
2021/08/21 05:38:19;;;;;;;1.15;0.73;;;24.30;56.30;;;;;;6340075;28;20140;-68
2021/08/21 05:41:19;;;;;;;0.82;0.82;;;24.30;56.20;;;;;;6322888;28;20400;-68
2021/08/21 05:44:20;;;;;;;1.30;0.90;;;24.30;56.30;;;;;;6315896;28;20032;-68
2021/08/21 05:47:20;;;;;;;0.52;0.50;;;24.30;56.30;;;;;;6316207;28;20031;-69
2021/08/21 05:50:21;;;;;;;1.00;0.75;;;24.30;56.20;;;;;;6317058;28;20032;-69
2021/08/21 05:53:22;;;;;;;0.80;0.80;;;24.30;56.30;;;;;;6320900;28;20098;-69
2021/08/21 05:56:23;;;;;;;0.70;0.70;;;24.30;56.30;;;;;;6337121;28;20120;-69
2021/08/21 05:59:24;;;;;;;1.20;0.55;;;24.30;56.30;;;;;;6345670;28;20412;-69
2021/08/21 06:02:26;;;;;;;0.75;0.75;;;24.30;56.30;;;;;;6320029;28;20035;-69
2021/08/21 06:05:27;;;;;;;0.95;0.70;;;24.30;56.30;;;;;;6320629;28;20017;-69
2021/08/21 06:08:27;;;;;;;0.75;0.75;;;24.30;56.30;;;;;;6320645;28;20392;-69
2021/08/21 06:11:28;;;;;;;0.85;0.68;;;24.30;56.20;;;;;;6331927;28;20045;-69
2021/08/21 06:14:30;;;;;;;1.00;0.70;;;24.30;56.20;;;;;;6345715;28;20024;-69
2021/08/21 06:17:30;;;;;;;1.90;0.80;;;24.30;56.30;;;;;;6325726;28;20012;-70
2021/08/21 06:20:31;;;;;;;0.65;0.63;;;24.30;56.30;;;;;;6321822;28;20028;-69
2021/08/21 06:23:31;;;;;;;0.80;0.80;;;24.30;56.30;;;;;;6344442;28;20070;-70
2021/08/21 06:26:32;;;;;;;0.85;0.55;;;24.30;56.10;;;;;;6332832;28;20855;-70
2021/08/21 06:29:35;;;;;;;1.17;0.70;;;24.30;56.10;;;;;;6319153;28;20032;-69
2021/08/21 06:32:35;;;;;;;1.52;0.82;;;24.30;56.20;;;;;;6335584;28;20480;-69
2021/08/21 06:35:36;;;;;;;0.50;0.50;;;24.30;56.20;;;;;;6342652;28;20030;-69
2021/08/21 06:38:36;;;;;;;0.93;0.70;;;24.30;56.20;;;;;;6342444;28;20644;-70
2021/08/21 06:41:37;;;;;;;0.70;0.70;;;24.30;56.20;;;;;;6342648;28;20418;-70
2021/08/21 06:44:38;;;;;;;1.23;0.90;;;24.30;56.20;;;;;;6343929;28;20391;-68
2021/08/21 06:47:38;;;;;;;0.90;0.70;;;24.30;56.20;;;;;;6327584;28;20035;-70
2021/08/21 06:50:39;;;;;;;1.40;0.80;;;24.30;56.30;;;;;;6320122;28;20066;-70
2021/08/21 06:53:40;;;;;;;0.95;0.68;;;24.30;56.30;;;;;;6319819;28;20051;-70
2021/08/21 06:56:41;;;;;;;0.85;0.77;;;24.30;56.30;;;;;;6318869;28;20059;-69
2021/08/21 06:59:41;;;;;;;0.90;0.70;;;24.30;56.30;;;;;;6317910;28;20024;-69
2021/08/21 07:02:42;;;;;;;0.98;0.70;;;24.30;56.30;;;;;;6332079;28;20047;-69
2021/08/21 07:05:43;;;;;;;0.90;0.80;;;24.30;56.30;;;;;;6323420;28;20043;-69
2021/08/21 07:08:43;;;;;;;0.80;0.70;;;24.30;56.30;;;;;;6338895;28;20327;-69
2021/08/21 07:11:44;;;;;;;0.80;0.70;;;24.30;56.30;;;;;;6344096;28;20074;-69
2021/08/21 07:14:44;;;;;;;0.70;0.68;;;24.30;56.30;;;;;;6315615;28;20082;-69
2021/08/21 07:17:45;;;;;;;0.80;0.70;;;24.30;56.30;;;;;;6314454;28;20039;-69
2021/08/21 07:20:46;;;;;;;0.90;0.80;;;24.30;56.40;;;;;;6342916;28;20524;-69
2021/08/21 07:23:46;;;;;;;1.20;0.80;;;24.30;56.30;;;;;;6342967;28;20043;-69
2021/08/21 07:26:48;;;;;;;1.15;0.80;;;24.30;56.40;;;;;;6343133;28;20027;-69
2021/08/21 07:29:48;;;;;;;0.93;0.70;;;24.30;56.40;;;;;;6343231;28;20088;-69
2021/08/21 07:32:49;;;;;;;1.10;0.70;;;24.30;56.40;;;;;;6343208;28;20027;-69
2021/08/21 07:35:49;;;;;;;0.60;0.60;;;24.30;56.40;;;;;;6341952;28;20134;-69
2021/08/21 07:38:52;;;;;;;0.60;0.60;;;24.30;56.40;;;;;;6343084;28;20034;-69
2021/08/21 07:41:52;;;;;;;1.85;0.73;;;24.30;56.40;;;;;;6342833;28;20027;-69
2021/08/21 07:44:53;;;;;;;1.33;1.00;;;24.30;56.40;;;;;;6317323;28;20428;-69
2021/08/21 07:47:53;;;;;;;0.88;0.80;;;24.20;56.30;;;;;;6325007;28;20027;-69
2021/08/21 07:50:54;;;;;;;0.93;0.77;;;24.30;56.40;;;;;;6340951;28;20334;-69
2021/08/21 07:53:55;;;;;;;0.70;0.70;;;24.30;56.40;;;;;;6342221;28;20016;-69
2021/08/21 07:56:55;;;;;;;0.70;0.60;;;24.30;56.40;;;;;;6342028;28;20116;-69
2021/08/21 07:59:56;;;;;;;1.10;0.80;;;24.30;56.40;;;;;;6340683;28;20077;-69
2021/08/21 08:02:56;;;;;;;0.45;0.45;;;24.20;56.30;;;;;;6342312;28;20102;-69
2021/08/21 08:05:57;;;;;;;0.55;0.52;;;24.20;56.30;;;;;;6317701;28;20476;-69
2021/08/21 08:08:58;;;;;;;0.75;0.75;;;24.30;56.40;;;;;;6316732;28;20035;-69
2021/08/21 08:11:58;;;;;;;1.73;0.65;;;24.30;56.40;;;;;;6316665;28;20381;-69
2021/08/21 08:14:59;;;;;;;1.05;0.80;;;24.30;56.40;;;;;;6305279;28;20060;-69
2021/08/21 08:17:59;;;;;;;0.50;0.50;;;24.20;56.30;;;;;;6298960;28;20437;-69
2021/08/21 08:21:00;;;;;;;0.77;0.60;;;24.20;56.30;;;;;;6340503;28;20491;-69
2021/08/21 08:24:01;;;;;;;0.90;0.70;;;24.30;56.40;;;;;;6341626;28;20037;-69
2021/08/21 08:27:02;;;;;;;0.50;0.50;;;24.30;56.40;;;;;;6342107;28;20032;-69
2021/08/21 08:30:04;;;;;;;0.70;0.70;;;24.30;56.40;;;;;;6329127;28;20043;-69
2021/08/21 08:33:04;;;;;;;0.70;0.68;;;24.30;56.40;;;;;;6341296;28;20035;-69
2021/08/21 08:36:05;;;;;;;1.20;0.70;;;24.30;56.40;;;;;;6341300;28;20032;-69
2021/08/21 08:39:06;;;;;;;0.80;0.70;;;24.30;56.40;;;;;;6338513;28;20231;-69
2021/08/21 08:42:08;;;;;;;0.63;0.60;;;24.30;56.40;;;;;;6339942;28;20024;-69
2021/08/21 08:45:13;;;;;;;0.90;0.70;;;24.30;56.30;;;;;;6339688;28;20030;-69
2021/08/21 08:48:14;;;;;;;;;;;24.30;56.40;;;;;;6341538;28;20027;-69
2021/08/21 08:51:15;;;;;;;0.60;0.50;;;24.20;56.20;;;;;;6341690;28;19904;-69
2021/08/21 08:54:16;;;;;;;0.60;0.60;;;24.30;56.30;;;;;;6332579;28;20020;-69
2021/08/21 08:57:31;;;;;;;0.80;0.60;;;24.30;56.30;;;;;;6315693;28;20582;-69
2021/08/21 09:00:33;;;;;;;0.50;0.50;;;24.30;56.30;;;;;;6333366;28;20532;-69
2021/08/21 09:03:34;;;;;;;1.23;0.60;;;24.30;56.30;;;;;;6339056;28;20031;-69
2021/08/21 09:06:35;;;;;;;0.80;0.75;;;24.30;56.40;;;;;;6341136;28;20076;-69
2021/08/21 09:09:36;;;;;;;0.65;0.57;;;24.30;56.30;;;;;;6341214;28;20024;-69
2021/08/21 09:12:36;;;;;;;1.27;0.80;;;24.20;56.30;;;;;;6340927;28;20120;-69
2021/08/21 09:15:45;;;;;;;0.90;0.70;;;24.30;56.40;;;;;;6313816;28;20115;-69
2021/08/21 09:19:02;;;;;;;0.60;0.52;;;24.30;56.40;;;;;;6340953;28;20067;-69
2021/08/21 09:22:07;;;;;;;1.10;0.75;;;24.30;56.40;;;;;;6319737;28;20484;-69
2021/08/21 09:25:10;;;;;;;0.80;0.80;;;24.30;56.40;;;;;;6317728;28;20020;-66
2021/08/21 09:28:29;;;;;;;0.80;0.63;;;24.30;56.40;;;;;;6320567;28;20114;-70
2021/08/21 09:31:32;;;;;;;0.63;0.63;;;24.30;56.40;;;;;;6320925;28;20028;-69
2021/08/21 09:34:34;;;;;;;0.80;0.60;;;24.20;56.30;;;;;;6322151;28;20031;-69
2021/08/21 09:37:48;;;;;;;0.85;0.60;;;24.30;56.40;;;;;;6321492;28;20037;-69
2021/08/21 09:40:58;;;;;;;1.02;0.93;;;24.30;56.40;;;;;;6322326;28;20046;-69
2021/08/21 09:44:07;;;;;;;1.02;0.90;;;24.30;56.40;;;;;;6319407;28;20493;-69
2021/08/21 09:47:26;;;;;;;0.70;0.65;;;24.30;56.40;;;;;;6321169;28;20113;-69
2021/08/21 09:50:32;;;;;;;1.10;0.70;;;24.30;56.40;;;;;;6330008;28;20019;-69
2021/08/21 09:53:39;;;;;;;0.60;0.60;;;24.20;57.00;;;;;;6346254;28;20505;-70
2021/08/21 09:56:42;;;;;;;0.63;0.60;;;24.30;56.40;;;;;;6327805;28;20044;-69
2021/08/21 09:59:43;;;;;;;0.70;0.65;;;24.20;56.30;;;;;;6319378;28;20504;-69
2021/08/21 10:02:44;;;;;;;0.82;0.65;;;24.20;56.40;;;;;;6320587;28;20035;-69
2021/08/21 10:05:48;;;;;;;0.70;0.52;;;24.20;56.40;;;;;;6330526;28;20019;-70
2021/08/21 10:08:53;;;;;;;0.60;0.50;;;24.30;56.50;;;;;;6346129;28;20664;-69
2021/08/21 10:11:54;;;;;;;;;;;24.30;56.40;;;;;;6346208;28;20418;-69
2021/08/21 10:14:55;;;;;;;2.05;0.88;;;24.20;56.40;;;;;;6330142;28;19959;-70
2021/08/21 10:17:56;;;;;;;0.65;0.65;;;24.30;56.50;;;;;;6320115;28;20024;-69
2021/08/21 10:20:57;;;;;;;0.80;0.60;;;24.30;56.40;;;;;;6320182;28;20024;-69
2021/08/21 10:23:57;;;;;;;0.52;0.52;;;24.30;56.40;;;;;;6319001;28;20040;-70
2021/08/21 10:27:07;;;;;;;0.60;0.50;;;24.30;56.50;;;;;;6333821;28;20432;-69
2021/08/21 10:30:26;;;;;;;0.93;0.60;;;24.20;56.40;;;;;;6345822;28;20405;-69
2021/08/21 10:33:29;;;;;;;1.33;0.60;;;24.30;56.50;;;;;;6344019;28;20031;-69
2021/08/21 10:36:46;;;;;;;0.70;0.57;;;24.30;56.50;;;;;;6345041;28;20033;-69
2021/08/21 10:39:46;;;;;;;0.65;0.57;;;24.30;56.50;;;;;;6343885;28;20019;-69
2021/08/21 10:43:05;;;;;;;0.60;0.50;;;24.20;56.40;;;;;;6325235;28;20055;-69
2021/08/21 10:46:06;;;;;;;0.60;0.60;;;24.20;56.40;;;;;;6321638;28;20020;-69
2021/08/21 10:49:07;;;;;;;0.70;0.68;;;24.30;56.50;;;;;;6319962;28;20027;-69
2021/08/21 10:52:47;;;;;;;0.52;0.50;;;24.30;56.50;;;;;;6319770;28;20036;-69
2021/08/21 10:55:48;;;;;;;0.70;0.60;;;24.20;56.40;;;;;;6319246;28;20442;-69
2021/08/21 10:58:55;;;;;;;0.80;0.75;;;24.30;56.50;;;;;;6342399;28;20028;-69
2021/08/21 11:02:25;;;;;;;0.60;0.60;;;24.30;56.50;;;;;;6342641;28;20019;-69
2021/08/21 11:06:04;;;;;;;0.63;0.50;;;24.30;56.40;;;;;;6342980;28;20015;-69
2021/08/21 11:09:08;;;;;;;1.48;0.68;;;24.30;56.40;;;;;;6344334;28;20046;-69
2021/08/21 11:12:28;;;;;;;0.60;0.60;;;24.20;56.30;;;;;;6343390;28;20027;-69
2021/08/21 11:15:32;;;;;;;0.80;0.70;;;24.30;56.40;;;;;;6323845;28;20031;-69
2021/08/21 11:18:32;;;;;;;0.65;0.50;;;24.20;56.30;;;;;;6325599;28;20015;-69
2021/08/21 11:21:35;;;;;;;1.17;0.70;;;24.20;56.30;;;;;;6342623;28;20034;-69
2021/08/21 11:24:38;;;;;;;0.75;0.70;;;24.30;56.40;;;;;;6342701;28;20019;-69
2021/08/21 11:27:39;;;;;;;0.80;0.80;;;24.30;56.50;;;;;;6341124;28;20070;-69
2021/08/21 11:30:41;;;;;;;0.95;0.70;;;24.30;56.40;;;;;;6318544;28;20027;-69
2021/08/21 11:33:42;;;;;;;0.88;0.60;;;24.30;56.40;;;;;;6318392;28;20028;-69
2021/08/21 11:36:43;;;;;;;0.73;0.52;;;24.20;56.40;;;;;;6318040;28;20051;-69
2021/08/21 11:39:54;;;;;;;0.68;0.60;;;24.20;56.40;;;;;;6341665;28;20420;-69
2021/08/21 11:42:56;;;;;;;0.60;0.50;;;24.30;56.50;;;;;;6343154;28;20087;-69
2021/08/21 11:45:58;;;;;;;0.82;0.70;;;24.30;56.50;;;;;;6343211;28;20411;-68
2021/08/21 11:49:07;;;;;;;1.02;0.65;;;24.20;56.40;;;;;;6342004;28;20118;-69
2021/08/21 11:52:08;;;;;;;0.80;0.60;;;24.30;56.50;;;;;;6341842;28;20456;-69
2021/08/21 11:55:10;;;;;;;0.98;0.70;;;24.20;56.40;;;;;;6343003;28;20068;-69
2021/08/21 11:58:12;;;;;;;0.80;0.60;;;24.20;56.40;;;;;;6333749;28;20044;-69
2021/08/21 12:01:14;;;;;;;0.63;0.60;;;24.20;56.40;;;;;;6318908;28;20035;-69
2021/08/21 12:07:31;;;;;;;1.00;0.90;;;24.20;56.40;;;;;;6342521;28;20020;-69
2021/08/21 12:10:46;;;;;;;1.05;0.80;;;24.20;56.40;;;;;;6342183;28;20016;-69
2021/08/21 12:13:47;;;;;;;;;;;24.20;56.40;;;;;;6328305;28;20032;-69
2021/08/21 12:16:50;;;;;;;0.60;0.55;;;24.20;56.40;;;;;;6289685;28;20166;-69
2021/08/21 12:19:51;;;;;;;1.40;0.98;;;24.30;56.50;;;;;;6329453;28;20439;-70
2021/08/21 12:22:52;;;;;;;0.60;0.60;;;24.20;56.40;;;;;;6339991;28;20030;-69
2021/08/21 12:25:57;;;;;;;1.25;0.60;;;24.30;56.50;;;;;;6339937;28;20031;-70
2021/08/21 12:28:58;;;;;;;0.82;0.50;;;24.20;56.40;;;;;;6313716;28;20085;-69
2021/08/21 12:32:01;;;;;;;0.80;0.52;;;24.30;56.50;;;;;;6306028;28;20028;-69
2021/08/21 12:35:18;;;;;;;0.60;0.60;;;24.20;56.40;;;;;;6313600;28;20073;-69
2021/08/21 12:38:20;;;;;;;0.60;0.50;;;24.20;56.50;;;;;;6324318;28;20020;-68
2021/08/21 12:41:20;;;;;;;0.68;0.52;;;24.30;56.50;;;;;;6316522;28;20020;-68
2021/08/21 12:44:42;;;;;;;0.47;0.43;;;24.20;56.50;;;;;;6322260;28;20437;-68
2021/08/21 12:47:42;;;;;;;0.55;0.50;;;24.30;56.60;;;;;;6314600;28;20059;-68
2021/08/21 12:50:43;;;;;;;1.67;0.88;;;24.20;56.50;;;;;;6334201;28;20062;-68
2021/08/21 12:53:43;;;;;;;0.68;0.60;;;24.20;56.50;;;;;;6324819;28;20106;-69
2021/08/21 12:57:03;;;;;;;0.85;0.60;;;24.20;56.50;;;;;;6337130;28;20555;-68
2021/08/21 13:00:14;;;;;;;4.10;0.75;;;24.30;56.50;;;;;;6323932;28;20024;-69
2021/08/21 13:03:21;;;;;;;0.90;0.60;;;24.20;56.50;;;;;;6336965;28;20044;-68
2021/08/21 13:06:22;;;;;;;0.90;0.40;;;24.30;56.60;;;;;;6333983;28;20031;-69
2021/08/21 13:09:22;;;;;;;1.02;0.70;;;24.20;56.50;;;;;;6324984;28;20131;-68
2021/08/21 13:12:23;;;;;;;0.95;0.70;;;24.20;56.50;;;;;;6338185;28;20034;-68
2021/08/21 13:15:24;;;;;;;1.35;0.82;;;24.30;56.60;;;;;;6319953;28;20024;-68
2021/08/21 13:18:25;;;;;;;5.43;0.70;;;24.20;56.50;;;;;;6323153;28;20664;-67
2021/08/21 13:21:26;;;;;;;0.82;0.70;;;24.20;56.50;;;;;;6319583;28;20016;-68
2021/08/21 13:24:27;;;;;;;1.95;0.80;;;24.20;56.60;;;;;;6317180;28;20529;-68
2021/08/21 13:27:28;;;;;;;0.82;0.70;;;24.20;56.60;;;;;;6337373;28;20024;-68
2021/08/21 13:30:31;;;;;;;4.72;0.70;;;24.20;56.60;;;;;;6324704;28;20027;-68
2021/08/21 13:33:31;;;;;;;1.30;0.70;;;24.20;56.60;;;;;;6330825;28;20074;-68
2021/08/21 13:36:34;;;;;;;0.60;0.60;;;24.30;56.70;;;;;;6337608;28;20612;-68
2021/08/21 13:39:36;;;;;;;8.85;1.17;;;24.20;56.60;;;;;;6322588;28;20020;-67
2021/08/21 13:42:37;;;;;;;4.68;1.05;;;24.30;56.70;;;;;;6338279;28;20030;-68
2021/08/21 13:45:37;;;;;;;9.48;1.10;;;24.20;56.60;;;;;;6336964;28;20027;-68
2021/08/21 13:48:38;;;;;;;6.25;1.13;;;24.20;56.70;;;;;;6322768;28;20048;-69
2021/08/21 13:51:41;;;;;;;7.00;1.13;;;24.20;56.60;;;;;;6324040;28;20032;-68
2021/08/21 13:54:42;;;;;;;6.47;1.10;;;24.20;56.70;;;;;;6325588;28;20099;-68
2021/08/21 13:57:43;;;;;;;4.55;1.10;;;24.20;56.70;;;;;;6335796;28;20425;-67
2021/08/21 14:00:44;;;;;;;9.57;1.00;;;24.20;56.70;;;;;;6323209;28;20421;-68
2021/08/21 14:03:44;;;;;;;4.30;0.98;;;24.30;56.90;;;;;;6335399;28;20019;-69
2021/08/21 14:06:45;;;;;;;5.63;1.17;;;24.30;56.90;;;;;;6336911;28;20676;-69
2021/08/21 14:09:46;;;;;;;5.90;1.20;;;24.20;56.80;;;;;;6325373;28;20013;-69
2021/08/21 14:12:46;;;;;;;3.25;1.00;;;24.20;56.80;;;;;;6338767;28;20152;-67
2021/08/21 14:15:47;;;;;;;5.57;1.15;;;24.20;56.80;;;;;;6323639;28;20028;-69
2021/08/21 14:18:47;;;;;;;5.97;1.10;;;24.20;56.80;;;;;;6344420;28;20476;-69
2021/08/21 14:21:48;;;;;;;4.85;1.00;;;24.30;57.00;;;;;;6319886;28;20027;-67
2021/08/21 14:24:49;;;;;;;7.95;1.20;;;24.20;56.90;;;;;;6314652;28;20452;-65
2021/08/21 14:27:49;;;;;;;2.53;0.82;;;24.20;56.90;;;;;;6338648;28;20077;-67
2021/08/21 14:30:50;;;;;;;4.07;1.10;;;24.30;57.00;;;;;;6336729;28;20593;-69
2021/08/21 14:33:51;;;;;;;7.72;1.10;;;24.20;56.90;;;;;;6345290;28;20020;-70
2021/08/21 14:36:52;;;;;;;12.48;1.30;;;24.30;57.00;;;;;;6326952;28;20114;-65
2021/08/21 14:39:52;;;;;;;4.80;1.25;;;24.30;57.00;;;;;;6341523;28;20493;-69
2021/08/21 14:42:53;;;;;;;9.13;1.42;;;24.20;56.90;;;;;;6323022;28;20020;-69
2021/08/21 14:45:54;;;;;;;6.28;1.50;;;24.20;56.90;;;;;;6317825;28;20497;-69
2021/08/21 14:48:55;;;;;;;5.90;1.23;;;24.20;56.90;;;;;;6316482;28;20027;-69
2021/08/21 14:51:56;;;;;;;9.25;2.17;;;24.20;56.90;;;;;;6316508;28;20062;-69
2021/08/21 14:54:56;;;;;;;8.30;1.73;;;24.20;56.90;;;;;;6317692;28;20024;-69
2021/08/21 14:57:57;;;;;;;10.35;2.10;;;24.30;57.00;;;;;;6317528;28;20040;-69
2021/08/21 15:00:58;;;;;;;10.98;1.73;;;24.20;57.00;;;;;;6316683;28;20024;-69
2021/08/21 15:04:02;;;;;;;10.57;1.85;;;24.20;57.00;;;;;;6320646;28;20323;-69
2021/08/21 15:07:03;;;;;;;11.10;1.08;;;24.20;57.00;;;;;;6317762;28;20520;-69
2021/08/21 15:10:04;;;;;;;19.80;1.95;;;24.30;57.10;;;;;;6316786;28;20040;-69
2021/08/21 15:13:05;;;;;;;10.55;1.48;;;24.20;57.00;;;;;;6317083;28;20481;-69
2021/08/21 15:16:07;;;;;;;10.75;1.98;;;24.20;57.00;;;;;;6302609;28;20027;-69
2021/08/21 15:19:08;;;;;;;10.10;2.03;;;24.30;57.10;;;;;;6333732;28;20031;-71
2021/08/21 15:22:10;;;;;;;11.45;1.67;;;24.30;57.10;;;;;;6318771;28;20508;-70
2021/08/21 15:25:11;;;;;;;9.45;1.30;;;24.20;57.00;;;;;;6316545;28;20027;-66
2021/08/21 15:28:12;;;;;;;14.65;1.70;;;24.30;57.10;;;;;;6316808;28;20060;-65
2021/08/21 15:31:13;;;;;;;8.98;1.65;;;24.20;57.00;;;;;;6326611;28;20619;-66
2021/08/21 15:34:13;;;;;;;9.73;1.55;;;24.20;57.00;;;;;;6342943;28;20032;-66
2021/08/21 15:37:15;;;;;;;11.30;1.50;;;24.20;57.10;;;;;;6326510;28;20036;-66
2021/08/21 15:40:16;;;;;;;9.80;1.52;;;24.20;57.10;;;;;;6316205;28;20031;-66
2021/08/21 15:43:16;;;;;;;10.57;1.85;;;24.20;57.10;;;;;;6317477;28;20079;-65
2021/08/21 15:46:18;;;;;;;15.25;1.70;;;24.20;57.10;;;;;;6317513;28;20528;-65
2021/08/21 15:49:18;;;;;;;14.02;2.10;;;24.30;57.20;;;;;;6317793;28;20031;-66
2021/08/21 15:52:23;;;;;;;6.97;1.35;;;24.20;57.10;;;;;;6317369;28;20519;-66
2021/08/21 15:55:24;;;;;;;10.25;1.30;;;24.20;57.20;;;;;;6317674;28;20071;-66